Time;durP1;ratioP1;P1;durP2;ratioP2;P2;SDS_P1;SDS_P2;PMS_P1;PMS_P2;Temp;Humidity;BMP_temperature;BMP_pressure;BME280_temperature;BME280_humidity;BME280_pressure;Samples;Min_cycle;Max_cycle;Signal;HPM_P1;HPM_P2
2023/12/23 00:01:34;;;;;;;1.93;1.07;;;8.50;99.90;;;;;;5000272;28;20480;-75
2023/12/23 00:04:01;;;;;;;1.33;1.23;;;8.40;99.90;;;;;;4994520;28;20484;-75
2023/12/23 00:06:26;;;;;;;1.00;0.90;;;8.40;99.90;;;;;;5004322;28;20492;-75
2023/12/23 00:08:52;;;;;;;1.83;1.03;;;8.40;99.90;;;;;;4980723;28;20500;-76
2023/12/23 00:11:18;;;;;;;1.57;0.93;;;8.40;99.90;;;;;;4992972;28;20231;-75
2023/12/23 00:13:44;;;;;;;1.40;1.07;;;8.40;99.90;;;;;;4997253;28;20226;-75
2023/12/23 00:16:09;;;;;;;1.30;1.20;;;8.40;99.90;;;;;;4991925;28;20222;-75
2023/12/23 00:18:35;;;;;;;0.70;0.70;;;8.40;99.90;;;;;;4990184;28;20680;-75
2023/12/23 00:21:01;;;;;;;0.80;0.80;;;8.40;99.90;;;;;;5000046;28;20662;-75
2023/12/23 00:23:26;;;;;;;2.60;1.00;;;8.40;99.90;;;;;;5001462;28;20228;-75
2023/12/23 00:25:52;;;;;;;1.57;1.10;;;8.40;99.90;;;;;;4978621;28;20667;-76
2023/12/23 00:28:18;;;;;;;1.63;0.97;;;8.40;99.90;;;;;;4997085;28;20226;-75
2023/12/23 00:30:43;;;;;;;1.60;1.20;;;8.40;99.90;;;;;;5001168;28;20344;-75
2023/12/23 00:33:09;;;;;;;1.37;0.90;;;8.50;99.90;;;;;;4993708;28;20214;-75
2023/12/23 00:35:36;;;;;;;1.57;1.03;;;8.50;99.90;;;;;;4997156;28;20234;-75
2023/12/23 00:38:01;;;;;;;2.30;1.00;;;8.50;99.90;;;;;;4994217;28;20462;-75
2023/12/23 00:40:27;;;;;;;1.20;1.10;;;8.50;99.90;;;;;;4995255;28;20222;-75
2023/12/23 00:42:53;;;;;;;1.37;0.90;;;8.50;99.90;;;;;;4978008;28;20241;-74
2023/12/23 00:45:18;;;;;;;0.97;0.90;;;8.50;99.90;;;;;;4993542;28;20226;-75
2023/12/23 00:47:44;;;;;;;1.10;0.97;;;8.50;99.90;;;;;;4968088;28;20239;-73
2023/12/23 00:50:10;;;;;;;1.20;1.17;;;8.50;99.90;;;;;;4990973;28;20229;-75
2023/12/23 00:52:35;;;;;;;1.33;1.13;;;8.50;99.90;;;;;;4982021;28;20645;-75
2023/12/23 00:55:02;;;;;;;1.20;1.10;;;8.50;99.90;;;;;;4987196;28;20233;-75
2023/12/23 00:57:28;;;;;;;1.47;1.37;;;8.50;99.90;;;;;;4982056;28;20230;-75
2023/12/23 00:59:54;;;;;;;1.20;1.10;;;8.50;99.90;;;;;;4982340;28;20457;-75
2023/12/23 01:02:23;;;;;;;0.90;0.90;;;8.50;99.90;;;;;;4996732;28;20316;-75
2023/12/23 01:04:49;;;;;;;0.80;0.80;;;8.50;99.90;;;;;;4998984;28;20556;-75
2023/12/23 01:07:15;;;;;;;1.40;1.30;;;8.50;99.90;;;;;;5004022;28;20390;-75
2023/12/23 01:09:40;;;;;;;1.47;1.20;;;8.50;99.90;;;;;;4982494;28;20568;-75
2023/12/23 01:12:06;;;;;;;3.87;1.60;;;8.40;99.90;;;;;;4982701;28;20221;-75
2023/12/23 01:14:32;;;;;;;1.53;1.20;;;8.40;99.90;;;;;;4996359;28;20602;-75
2023/12/23 01:16:58;;;;;;;4.40;1.20;;;8.40;99.90;;;;;;5000362;28;20458;-75
2023/12/23 01:19:24;;;;;;;1.40;1.30;;;8.50;99.90;;;;;;4998283;28;20241;-76
2023/12/23 01:21:51;;;;;;;2.20;1.30;;;8.50;99.90;;;;;;4993204;28;20296;-74
2023/12/23 01:24:17;;;;;;;1.10;1.00;;;8.50;99.90;;;;;;4986751;28;20481;-75
2023/12/23 01:26:43;;;;;;;1.40;1.30;;;8.40;99.90;;;;;;4989061;28;20267;-75
2023/12/23 01:29:08;;;;;;;1.93;1.20;;;8.40;99.90;;;;;;4994424;28;20225;-75
2023/12/23 01:31:34;;;;;;;2.67;1.47;;;8.40;99.90;;;;;;4986635;28;20234;-75
2023/12/23 01:34:00;;;;;;;1.37;1.27;;;8.50;99.90;;;;;;4984378;28;20232;-75
2023/12/23 01:36:26;;;;;;;1.40;1.30;;;8.50;99.90;;;;;;4986454;28;20229;-75
2023/12/23 01:38:51;;;;;;;2.73;1.67;;;8.50;99.90;;;;;;5000237;28;20222;-75
2023/12/23 01:41:17;;;;;;;1.73;1.30;;;8.50;99.90;;;;;;4987185;28;20468;-75
2023/12/23 01:43:43;;;;;;;1.93;1.43;;;8.50;99.90;;;;;;4998726;28;20236;-75
2023/12/23 01:46:10;;;;;;;2.30;1.30;;;8.50;99.90;;;;;;4994228;28;20497;-75
2023/12/23 01:48:39;;;;;;;1.30;1.20;;;8.50;99.90;;;;;;4993547;28;20485;-75
2023/12/23 01:51:05;;;;;;;2.73;1.80;;;8.50;99.90;;;;;;4998565;28;20543;-75
2023/12/23 01:53:32;;;;;;;2.70;1.50;;;8.50;99.90;;;;;;5003600;28;20914;-76
2023/12/23 01:55:59;;;;;;;2.67;1.50;;;8.50;99.90;;;;;;5004532;28;20959;-74
2023/12/23 01:58:24;;;;;;;1.33;1.23;;;8.50;99.90;;;;;;5037147;28;20462;-75
2023/12/23 02:00:50;;;;;;;1.83;1.23;;;8.50;99.90;;;;;;4999399;28;20461;-74
2023/12/23 02:03:17;;;;;;;1.37;1.27;;;8.50;99.90;;;;;;5000851;28;20591;-75
2023/12/23 02:05:45;;;;;;;1.20;1.10;;;8.50;99.90;;;;;;5009677;28;20222;-75
2023/12/23 02:08:11;;;;;;;2.67;1.27;;;8.50;99.90;;;;;;5035855;28;20462;-75
2023/12/23 02:10:37;;;;;;;5.13;1.80;;;8.50;99.90;;;;;;5002443;28;20445;-75
2023/12/23 02:13:21;;;;;;;3.03;1.70;;;8.50;99.90;;;;;;5011871;28;20487;-75
2023/12/23 02:15:48;;;;;;;1.17;1.10;;;8.50;99.90;;;;;;5020978;28;20943;-75
2023/12/23 02:18:14;;;;;;;1.90;1.27;;;8.50;99.90;;;;;;5008774;28;20460;-75
2023/12/23 02:20:41;;;;;;;2.60;1.10;;;8.50;99.90;;;;;;5006747;28;20460;-75
2023/12/23 02:23:07;;;;;;;1.57;1.47;;;8.50;99.90;;;;;;5014079;28;20514;-75
2023/12/23 02:25:32;;;;;;;9.87;2.07;;;8.50;99.90;;;;;;5014010;28;20218;-75
2023/12/23 02:28:07;;;;;;;1.50;1.30;;;8.50;99.90;;;;;;5010163;28;20280;-75
2023/12/23 02:30:36;;;;;;;1.50;1.30;;;8.50;99.90;;;;;;5015817;28;20311;-75
2023/12/23 02:33:02;;;;;;;1.70;1.40;;;8.50;99.90;;;;;;4987627;28;20501;-75
2023/12/23 02:35:29;;;;;;;1.23;1.17;;;8.50;99.90;;;;;;4982612;28;20692;-75
2023/12/23 02:37:55;;;;;;;7.50;1.30;;;8.50;99.90;;;;;;4976182;28;20503;-75
2023/12/23 02:40:21;;;;;;;1.47;1.20;;;8.50;99.90;;;;;;4994030;28;20264;-75
2023/12/23 02:42:46;;;;;;;4.33;1.40;;;8.60;99.90;;;;;;4980606;28;20220;-75
2023/12/23 02:45:12;;;;;;;2.00;0.90;;;8.60;99.90;;;;;;4990644;28;20476;-75
2023/12/23 02:47:38;;;;;;;2.30;1.47;;;8.60;99.90;;;;;;4976634;28;20221;-75
2023/12/23 02:50:04;;;;;;;1.80;1.30;;;8.60;99.90;;;;;;5009143;28;20317;-75
2023/12/23 02:52:29;;;;;;;2.10;1.33;;;8.50;99.90;;;;;;4982742;28;20700;-75
2023/12/23 02:54:55;;;;;;;2.63;1.37;;;8.50;99.90;;;;;;4993469;28;20497;-75
2023/12/23 02:57:21;;;;;;;2.70;1.43;;;8.50;99.90;;;;;;4988278;28;20640;-75
2023/12/23 02:59:47;;;;;;;1.63;1.43;;;8.60;99.90;;;;;;4995933;28;20225;-75
2023/12/23 03:02:13;;;;;;;3.00;1.27;;;8.50;99.90;;;;;;4998256;28;20469;-75
2023/12/23 03:04:39;;;;;;;1.10;0.90;;;8.50;99.90;;;;;;4976560;28;20540;-74
2023/12/23 03:07:06;;;;;;;4.53;1.40;;;8.50;99.90;;;;;;4970767;28;20217;-75
2023/12/23 03:09:34;;;;;;;1.20;0.90;;;8.50;99.90;;;;;;4995420;28;20453;-75
2023/12/23 03:12:00;;;;;;;1.03;0.97;;;8.60;99.90;;;;;;4990823;28;20462;-75
2023/12/23 03:14:26;;;;;;;4.20;1.20;;;8.60;99.90;;;;;;4981229;28;20472;-75
2023/12/23 03:16:51;;;;;;;3.00;1.33;;;8.60;99.90;;;;;;4984240;28;20886;-75
2023/12/23 03:19:17;;;;;;;2.63;1.10;;;8.60;99.90;;;;;;4991692;28;20272;-75
2023/12/23 03:21:44;;;;;;;1.87;1.10;;;8.60;99.90;;;;;;4982938;28;20301;-74
2023/12/23 03:24:10;;;;;;;6.77;1.57;;;8.60;99.90;;;;;;4984135;28;20314;-75
2023/12/23 03:26:37;;;;;;;1.37;1.00;;;8.60;99.90;;;;;;5002714;28;20474;-75
2023/12/23 03:29:05;;;;;;;4.43;1.03;;;8.60;99.90;;;;;;4999624;28;20464;-75
2023/12/23 03:31:32;;;;;;;1.70;1.13;;;8.60;99.90;;;;;;5005307;28;20539;-75
2023/12/23 03:33:59;;;;;;;2.90;1.20;;;8.60;99.90;;;;;;4987044;28;20470;-75
2023/12/23 03:36:25;;;;;;;3.30;1.50;;;8.60;99.90;;;;;;4980913;28;20466;-75
2023/12/23 03:38:51;;;;;;;2.47;1.37;;;8.60;99.90;;;;;;4991530;28;20461;-75
2023/12/23 03:41:16;;;;;;;1.10;1.00;;;8.60;99.90;;;;;;4994735;28;20273;-75
2023/12/23 03:43:42;;;;;;;3.23;1.40;;;8.60;99.90;;;;;;4988477;28;20735;-75
2023/12/23 03:46:08;;;;;;;2.57;1.37;;;8.60;99.90;;;;;;4997928;28;20221;-75
2023/12/23 03:48:33;;;;;;;2.10;1.33;;;8.60;99.90;;;;;;5001097;28;20229;-76
2023/12/23 03:50:59;;;;;;;2.23;1.27;;;8.60;99.90;;;;;;4998442;28;20229;-75
2023/12/23 03:53:25;;;;;;;2.63;1.53;;;8.60;99.90;;;;;;4984798;28;20574;-76
2023/12/23 03:55:50;;;;;;;1.10;0.93;;;8.60;99.90;;;;;;4982753;28;20367;-76
2023/12/23 03:58:16;;;;;;;2.63;1.37;;;8.60;99.90;;;;;;4990621;28;20254;-75
2023/12/23 04:00:42;;;;;;;1.80;0.97;;;8.60;99.90;;;;;;4982498;28;20276;-75
2023/12/23 04:03:07;;;;;;;1.23;1.00;;;8.60;99.90;;;;;;4999770;28;20222;-75
2023/12/23 04:05:33;;;;;;;2.10;0.90;;;8.60;99.90;;;;;;5005089;28;20218;-75
2023/12/23 04:07:59;;;;;;;1.17;0.90;;;8.60;99.90;;;;;;5000495;28;20241;-75
2023/12/23 04:10:24;;;;;;;3.23;1.30;;;8.60;99.90;;;;;;5003390;28;20711;-76
2023/12/23 04:12:50;;;;;;;2.10;0.80;;;8.60;99.90;;;;;;4997321;28;20218;-76
2023/12/23 04:15:16;;;;;;;0.97;0.77;;;8.60;99.90;;;;;;5004258;28;20230;-75
2023/12/23 04:17:42;;;;;;;0.80;0.80;;;8.60;99.90;;;;;;4986878;28;20485;-75
2023/12/23 04:20:09;;;;;;;3.90;0.77;;;8.60;99.90;;;;;;4978777;28;20225;-75
2023/12/23 04:22:34;;;;;;;0.73;0.70;;;8.60;99.90;;;;;;5000366;28;21078;-77
2023/12/23 04:25:00;;;;;;;3.97;1.00;;;8.60;99.90;;;;;;4984948;28;20591;-75
2023/12/23 04:27:26;;;;;;;1.37;0.63;;;8.60;99.90;;;;;;5007027;28;20276;-76
2023/12/23 04:29:52;;;;;;;0.73;0.70;;;8.60;99.90;;;;;;5000883;28;20245;-75
2023/12/23 04:32:17;;;;;;;1.03;0.70;;;8.60;99.90;;;;;;4994321;28;20287;-75
2023/12/23 04:34:43;;;;;;;0.80;0.80;;;8.60;99.90;;;;;;5000417;28;20229;-75
2023/12/23 04:37:09;;;;;;;0.60;0.60;;;8.60;99.90;;;;;;4988754;28;20234;-75
2023/12/23 04:39:36;;;;;;;2.00;1.00;;;8.60;99.90;;;;;;4980443;28;20257;-76
2023/12/23 04:42:03;;;;;;;0.90;0.80;;;8.60;99.90;;;;;;4993078;28;20460;-76
2023/12/23 04:44:29;;;;;;;2.47;0.97;;;8.60;99.90;;;;;;4984768;28;20456;-75
2023/12/23 04:46:56;;;;;;;1.63;1.00;;;8.60;99.90;;;;;;4984104;28;20986;-75
2023/12/23 04:49:21;;;;;;;1.80;1.00;;;8.60;99.90;;;;;;4987082;28;20461;-76
2023/12/23 04:51:47;;;;;;;2.80;0.93;;;8.60;99.90;;;;;;4995394;28;20471;-75
2023/12/23 04:54:13;;;;;;;1.17;0.93;;;8.60;99.90;;;;;;5006660;28;20249;-76
2023/12/23 04:56:39;;;;;;;1.07;0.97;;;8.60;99.90;;;;;;4982958;28;20485;-75
2023/12/23 04:59:06;;;;;;;3.90;1.23;;;8.60;99.90;;;;;;5004836;28;20222;-75
2023/12/23 05:01:32;;;;;;;1.43;0.90;;;8.60;99.90;;;;;;5001422;28;20544;-75
2023/12/23 05:03:58;;;;;;;0.97;0.73;;;8.60;99.90;;;;;;4984079;28;20646;-75
2023/12/23 05:06:24;;;;;;;1.60;0.83;;;8.60;99.90;;;;;;4988066;28;20320;-75
2023/12/23 05:08:49;;;;;;;2.80;1.00;;;8.60;99.90;;;;;;4999223;28;20218;-74
2023/12/23 05:11:15;;;;;;;2.13;0.70;;;8.60;99.90;;;;;;5003777;28;20681;-75
2023/12/23 05:13:42;;;;;;;0.60;0.60;;;8.60;99.90;;;;;;4982269;28;20309;-75
2023/12/23 05:16:08;;;;;;;1.37;0.90;;;8.60;99.90;;;;;;4995843;28;21013;-75
2023/12/23 05:18:34;;;;;;;0.60;0.60;;;8.60;99.90;;;;;;4982996;28;20460;-76
2023/12/23 05:21:00;;;;;;;0.60;0.40;;;8.60;99.90;;;;;;4983535;28;20739;-75
2023/12/23 05:23:25;;;;;;;0.40;0.40;;;8.60;99.90;;;;;;5004054;28;20221;-75
2023/12/23 05:25:53;;;;;;;1.13;0.57;;;8.60;99.90;;;;;;4983654;28;20249;-75
2023/12/23 05:28:20;;;;;;;0.53;0.53;;;8.60;99.90;;;;;;4991937;28;20280;-76
2023/12/23 05:30:45;;;;;;;0.83;0.60;;;8.60;99.90;;;;;;4994061;28;20452;-75
2023/12/23 05:33:11;;;;;;;2.60;0.50;;;8.60;99.90;;;;;;5004528;28;20214;-75
2023/12/23 05:35:37;;;;;;;0.70;0.50;;;8.60;99.90;;;;;;5001293;28;20567;-75
2023/12/23 05:38:03;;;;;;;2.10;0.40;;;8.60;99.90;;;;;;4988176;28;20222;-75
2023/12/23 05:40:28;;;;;;;6.60;0.60;;;8.60;99.90;;;;;;5000430;28;20696;-76
2023/12/23 05:42:54;;;;;;;0.83;0.60;;;8.60;99.90;;;;;;4997150;28;20856;-75
2023/12/23 05:45:20;;;;;;;0.40;0.40;;;8.60;99.90;;;;;;4994710;28;20226;-76
2023/12/23 05:47:48;;;;;;;0.60;0.47;;;8.60;99.90;;;;;;4979851;28;20209;-75
2023/12/23 05:50:14;;;;;;;0.83;0.40;;;8.60;99.90;;;;;;4988495;28;20305;-75
2023/12/23 05:52:39;;;;;;;0.83;0.70;;;8.70;99.90;;;;;;4997418;28;20477;-76
2023/12/23 05:55:06;;;;;;;0.50;0.50;;;8.70;99.90;;;;;;4996489;28;20993;-76
2023/12/23 05:57:31;;;;;;;1.23;0.93;;;8.70;99.90;;;;;;5003398;28;20222;-76
2023/12/23 05:59:57;;;;;;;1.80;0.83;;;8.70;99.90;;;;;;4998377;28;20473;-75
2023/12/23 06:02:23;;;;;;;0.70;0.50;;;8.70;99.90;;;;;;4983066;28;20240;-76
2023/12/23 06:04:48;;;;;;;0.73;0.60;;;8.70;99.90;;;;;;5005080;28;20764;-75
2023/12/23 06:07:14;;;;;;;1.27;0.90;;;8.80;99.90;;;;;;5000705;28;20229;-76
2023/12/23 06:09:40;;;;;;;0.83;0.83;;;8.70;99.90;;;;;;4996685;28;20311;-75
2023/12/23 06:12:06;;;;;;;1.43;0.60;;;8.80;99.90;;;;;;4992828;28;20519;-75
2023/12/23 06:14:31;;;;;;;1.23;0.70;;;8.80;99.90;;;;;;4982307;28;20253;-75
2023/12/23 06:16:57;;;;;;;2.10;0.77;;;8.70;99.90;;;;;;5000909;28;20458;-75
2023/12/23 06:19:23;;;;;;;2.63;0.87;;;8.80;99.90;;;;;;5004357;28;20300;-75
2023/12/23 06:21:49;;;;;;;0.70;0.70;;;8.80;99.90;;;;;;4980495;28;20249;-75
2023/12/23 06:24:14;;;;;;;2.57;0.87;;;8.80;99.90;;;;;;4995305;28;20279;-75
2023/12/23 06:26:40;;;;;;;0.80;0.70;;;8.70;99.90;;;;;;4996386;28;20224;-75
2023/12/23 06:29:06;;;;;;;4.30;1.13;;;8.70;99.90;;;;;;4988221;28;20227;-75
2023/12/23 06:31:33;;;;;;;1.27;0.73;;;8.70;99.90;;;;;;4998077;28;20568;-76
2023/12/23 06:33:59;;;;;;;0.70;0.70;;;8.70;99.90;;;;;;5000624;28;20253;-74
2023/12/23 06:36:24;;;;;;;0.60;0.53;;;8.70;99.90;;;;;;5002003;28;20484;-75
2023/12/23 06:38:50;;;;;;;1.10;0.80;;;8.70;99.90;;;;;;4994293;28;20229;-75
2023/12/23 06:41:15;;;;;;;5.10;1.00;;;8.70;99.90;;;;;;4990960;28;20669;-75
2023/12/23 06:43:41;;;;;;;0.97;0.70;;;8.70;99.90;;;;;;4990536;28;20226;-77
2023/12/23 06:46:10;;;;;;;0.80;0.80;;;8.70;99.90;;;;;;5001254;28;20231;-76
2023/12/23 06:48:37;;;;;;;0.90;0.70;;;8.70;99.90;;;;;;5002264;28;20253;-76
2023/12/23 06:51:03;;;;;;;0.70;0.70;;;8.70;99.90;;;;;;4998503;28;20484;-75
2023/12/23 06:53:29;;;;;;;0.63;0.63;;;8.70;99.90;;;;;;4985536;28;20519;-75
2023/12/23 06:55:55;;;;;;;1.67;0.70;;;8.70;99.90;;;;;;4975126;28;20454;-75
2023/12/23 06:58:22;;;;;;;4.47;1.00;;;8.70;99.90;;;;;;4980711;28;20598;-76
2023/12/23 07:00:48;;;;;;;1.17;0.77;;;8.70;99.90;;;;;;4987628;28;20220;-75
2023/12/23 07:03:14;;;;;;;3.60;0.90;;;8.70;99.90;;;;;;4981775;28;20563;-75
2023/12/23 07:05:40;;;;;;;0.90;0.60;;;8.70;99.90;;;;;;4992938;28;20244;-75
2023/12/23 07:08:06;;;;;;;1.03;0.73;;;8.70;99.90;;;;;;4998869;28;20225;-76
2023/12/23 07:10:31;;;;;;;2.10;0.60;;;8.70;99.90;;;;;;4999301;28;20268;-75
2023/12/23 07:12:57;;;;;;;0.93;0.87;;;8.70;99.90;;;;;;4983969;28;20273;-75
2023/12/23 07:15:23;;;;;;;0.70;0.70;;;8.70;99.90;;;;;;4985725;28;20242;-76
2023/12/23 07:17:48;;;;;;;2.47;1.00;;;8.70;99.90;;;;;;4974607;28;20214;-76
2023/12/23 07:20:14;;;;;;;3.90;0.77;;;8.70;99.90;;;;;;5000701;28;20706;-76
2023/12/23 07:22:40;;;;;;;1.73;0.63;;;8.70;99.90;;;;;;4992016;28;20210;-76
2023/12/23 07:25:06;;;;;;;1.83;0.70;;;8.70;99.90;;;;;;4984416;28;20821;-75
2023/12/23 07:27:32;;;;;;;4.37;1.10;;;8.70;99.90;;;;;;4998753;28;20504;-76
2023/12/23 07:29:58;;;;;;;1.23;0.93;;;8.70;99.90;;;;;;4991062;28;20663;-75
2023/12/23 07:32:24;;;;;;;1.90;0.80;;;8.60;99.90;;;;;;5006286;28;20694;-76
2023/12/23 07:34:50;;;;;;;2.47;1.00;;;8.60;99.90;;;;;;4997992;28;20227;-75
2023/12/23 07:37:15;;;;;;;2.97;0.90;;;8.70;99.90;;;;;;4992749;28;20480;-75
2023/12/23 07:39:41;;;;;;;1.43;0.70;;;8.60;99.90;;;;;;4980590;28;20226;-76
2023/12/23 07:42:07;;;;;;;0.77;0.60;;;8.70;99.90;;;;;;4994453;28;20252;-75
2023/12/23 07:44:36;;;;;;;1.00;0.70;;;8.60;99.90;;;;;;5005532;28;20244;-75
2023/12/23 07:47:03;;;;;;;1.83;0.90;;;8.60;99.90;;;;;;4983036;28;20242;-76
2023/12/23 07:49:30;;;;;;;0.80;0.77;;;8.60;99.90;;;;;;5004416;28;20480;-75
2023/12/23 07:51:56;;;;;;;0.60;0.60;;;8.60;99.90;;;;;;4992929;28;20446;-74
2023/12/23 07:54:21;;;;;;;0.60;0.60;;;8.60;99.90;;;;;;4996252;28;20469;-75
2023/12/23 07:56:47;;;;;;;1.00;0.70;;;8.60;99.90;;;;;;4998207;28;20213;-75
2023/12/23 07:59:13;;;;;;;4.50;0.90;;;8.70;99.90;;;;;;5005319;28;20214;-76
2023/12/23 08:01:45;;;;;;;0.97;0.73;;;8.60;99.90;;;;;;4995267;28;20291;-75
2023/12/23 08:04:12;;;;;;;1.03;0.53;;;8.60;99.90;;;;;;5002355;28;20237;-76
2023/12/23 08:06:39;;;;;;;2.20;0.87;;;8.60;99.90;;;;;;4990467;28;20546;-75
2023/12/23 08:09:04;;;;;;;0.73;0.47;;;8.60;99.90;;;;;;5010910;28;20464;-76
2023/12/23 08:11:30;;;;;;;1.80;1.17;;;8.60;99.90;;;;;;4999082;28;20460;-75
2023/12/23 08:13:56;;;;;;;1.23;0.80;;;8.60;99.90;;;;;;5009991;28;20237;-75
2023/12/23 08:16:22;;;;;;;0.97;0.50;;;8.60;99.90;;;;;;5022034;28;20544;-75
2023/12/23 08:18:48;;;;;;;0.60;0.60;;;8.60;99.90;;;;;;4999391;28;20214;-75
2023/12/23 08:21:14;;;;;;;1.17;0.67;;;8.70;99.90;;;;;;4994612;28;20453;-75
2023/12/23 08:23:40;;;;;;;2.40;1.03;;;8.60;99.90;;;;;;4997780;28;20215;-75
2023/12/23 08:26:06;;;;;;;0.80;0.77;;;8.70;99.90;;;;;;5005121;28;20226;-76
2023/12/23 08:28:32;;;;;;;1.87;0.73;;;8.60;99.90;;;;;;4996231;28;20302;-76
2023/12/23 08:30:57;;;;;;;1.73;0.80;;;8.70;99.90;;;;;;4991149;28;20548;-76
2023/12/23 08:33:23;;;;;;;1.70;0.50;;;8.60;99.90;;;;;;5000880;28;20253;-76
2023/12/23 08:35:49;;;;;;;2.30;1.00;;;8.60;99.90;;;;;;4985755;28;20220;-75
2023/12/23 08:38:15;;;;;;;0.50;0.50;;;8.60;99.90;;;;;;5001989;28;20221;-75
2023/12/23 08:40:40;;;;;;;1.20;1.00;;;8.60;99.90;;;;;;4986713;28;20230;-75
2023/12/23 08:43:06;;;;;;;0.50;0.50;;;8.60;99.90;;;;;;4996829;28;20224;-75
2023/12/23 08:45:32;;;;;;;0.60;0.60;;;8.60;99.90;;;;;;5000904;28;20209;-75
2023/12/23 08:47:57;;;;;;;1.47;0.60;;;8.60;99.90;;;;;;4990621;28;20230;-75
2023/12/23 08:50:23;;;;;;;0.40;0.40;;;8.60;99.90;;;;;;4997383;28;20218;-75
2023/12/23 08:52:49;;;;;;;1.67;0.60;;;8.60;99.90;;;;;;4990144;28;20206;-75
2023/12/23 08:55:15;;;;;;;0.40;0.40;;;8.60;99.90;;;;;;5002742;28;20217;-75
2023/12/23 08:57:41;;;;;;;0.50;0.40;;;8.70;99.90;;;;;;5001575;28;20468;-75
2023/12/23 09:00:07;;;;;;;5.73;0.93;;;8.70;99.90;;;;;;4995701;28;21003;-75
2023/12/23 09:02:34;;;;;;;0.93;0.60;;;8.70;99.90;;;;;;5004038;28;20230;-76
2023/12/23 09:05:00;;;;;;;0.50;0.50;;;8.70;99.90;;;;;;4993467;28;20537;-75
2023/12/23 09:07:25;;;;;;;0.80;0.60;;;8.70;99.90;;;;;;5004231;28;20876;-76
2023/12/23 09:09:51;;;;;;;1.00;0.50;;;8.70;99.90;;;;;;5000251;28;20218;-75
2023/12/23 09:12:19;;;;;;;0.40;0.40;;;8.70;99.90;;;;;;4987206;28;20217;-75
2023/12/23 09:14:45;;;;;;;0.50;0.40;;;8.70;99.90;;;;;;4990267;28;20230;-75
2023/12/23 09:17:11;;;;;;;0.63;0.53;;;8.80;99.90;;;;;;4997289;28;20473;-75
2023/12/23 09:19:37;;;;;;;0.80;0.80;;;8.80;99.90;;;;;;5005371;28;20452;-75
2023/12/23 09:22:03;;;;;;;0.93;0.80;;;8.80;99.90;;;;;;5000191;28;20272;-75
2023/12/23 09:24:28;;;;;;;0.90;0.90;;;8.80;99.90;;;;;;5004145;28;20232;-75
2023/12/23 09:26:54;;;;;;;0.70;0.70;;;8.80;99.90;;;;;;5000194;28;20279;-75
2023/12/23 09:29:20;;;;;;;0.60;0.60;;;8.90;99.90;;;;;;5003849;28;20221;-75
2023/12/23 09:31:45;;;;;;;1.03;0.93;;;8.90;99.90;;;;;;4997226;28;20214;-75
2023/12/23 09:34:11;;;;;;;1.93;1.80;;;8.90;99.90;;;;;;4999498;28;20237;-75
2023/12/23 09:36:37;;;;;;;1.23;1.13;;;8.90;99.90;;;;;;4998304;28;20237;-75
2023/12/23 09:39:04;;;;;;;1.03;1.03;;;8.90;99.90;;;;;;4979013;28;20218;-75
2023/12/23 09:41:32;;;;;;;2.27;2.17;;;9.00;99.90;;;;;;4982214;28;20218;-75
2023/12/23 09:43:57;;;;;;;2.93;2.73;;;9.00;99.90;;;;;;4994114;28;20468;-75
2023/12/23 09:46:23;;;;;;;1.60;1.50;;;9.00;99.90;;;;;;4981749;28;20549;-75
2023/12/23 09:48:49;;;;;;;0.70;0.70;;;9.10;99.90;;;;;;4989407;28;20268;-75
2023/12/23 09:51:17;;;;;;;1.10;1.10;;;9.10;99.90;;;;;;4993012;28;21082;-75
2023/12/23 09:53:46;;;;;;;0.90;0.90;;;9.10;99.90;;;;;;4990140;28;20219;-75
2023/12/23 09:56:12;;;;;;;1.43;1.33;;;9.10;99.90;;;;;;4989951;28;20542;-75
2023/12/23 09:58:37;;;;;;;1.00;1.00;;;9.10;99.90;;;;;;4992649;28;20464;-75
2023/12/23 10:01:03;;;;;;;0.50;0.50;;;9.10;99.90;;;;;;4987446;28;21025;-75
2023/12/23 10:03:29;;;;;;;1.33;0.60;;;9.10;99.90;;;;;;4974106;28;20221;-75
2023/12/23 10:06:01;;;;;;;0.47;0.47;;;9.20;99.90;;;;;;4990817;28;20220;-75
2023/12/23 10:08:28;;;;;;;0.50;0.50;;;9.20;99.90;;;;;;4997528;28;20277;-75
2023/12/23 10:10:53;;;;;;;0.40;0.30;;;9.20;99.90;;;;;;4993637;28;20528;-75
2023/12/23 10:13:20;;;;;;;0.50;0.50;;;9.30;99.90;;;;;;4993779;28;20528;-75
2023/12/23 10:15:45;;;;;;;0.60;0.60;;;9.30;99.90;;;;;;4985629;28;20258;-75
2023/12/23 10:18:12;;;;;;;0.60;0.60;;;9.30;99.90;;;;;;5000222;28;20523;-75
2023/12/23 10:20:38;;;;;;;0.43;0.43;;;9.30;99.90;;;;;;5019602;28;20217;-75
2023/12/23 10:23:04;;;;;;;0.30;0.30;;;9.30;99.90;;;;;;5002548;28;21049;-75
2023/12/23 10:25:30;;;;;;;0.37;0.30;;;9.30;99.90;;;;;;4991064;28;20472;-76
2023/12/23 10:28:05;;;;;;;0.50;0.40;;;9.40;99.90;;;;;;4971181;28;20473;-75
2023/12/23 10:30:34;;;;;;;1.07;0.57;;;9.30;99.90;;;;;;4989677;28;20468;-76
2023/12/23 10:33:07;;;;;;;0.60;0.60;;;9.40;99.90;;;;;;4989587;28;20466;-76
2023/12/23 10:35:43;;;;;;;0.60;0.60;;;9.30;99.90;;;;;;4994336;28;20477;-75
2023/12/23 10:38:12;;;;;;;3.03;2.40;;;9.30;99.90;;;;;;4977043;28;20848;-75
2023/12/23 10:40:38;;;;;;;4.13;2.63;;;9.40;99.90;;;;;;4992967;28;20468;-75
2023/12/23 10:43:05;;;;;;;3.20;2.90;;;9.30;99.90;;;;;;4980715;28;20462;-75
2023/12/23 10:45:32;;;;;;;0.97;0.90;;;9.30;99.90;;;;;;4997984;28;20548;-75
2023/12/23 10:48:00;;;;;;;0.90;0.90;;;9.30;99.90;;;;;;4972464;28;20613;-75
2023/12/23 10:50:26;;;;;;;0.70;0.70;;;9.20;99.90;;;;;;4982611;28;20238;-76
2023/12/23 10:52:53;;;;;;;1.53;1.43;;;9.20;99.90;;;;;;4992425;28;20468;-76
2023/12/23 10:55:23;;;;;;;0.70;0.63;;;9.20;99.90;;;;;;4993674;28;20551;-75
2023/12/23 10:57:51;;;;;;;0.83;0.83;;;9.20;99.90;;;;;;4987658;28;20470;-75
2023/12/23 11:00:17;;;;;;;1.37;1.37;;;9.20;99.90;;;;;;4987455;28;20491;-75
2023/12/23 11:02:43;;;;;;;1.50;1.40;;;9.30;99.90;;;;;;4990851;28;20980;-75
2023/12/23 11:05:11;;;;;;;30.03;15.53;;;9.30;99.90;;;;;;4997412;28;20226;-75
2023/12/23 11:07:43;;;;;;;15.80;10.10;;;9.30;99.90;;;;;;4999907;28;20467;-75
2023/12/23 11:10:10;;;;;;;4.23;3.70;;;9.30;99.90;;;;;;4987058;28;20488;-73
2023/12/23 11:12:36;;;;;;;4.13;3.73;;;9.30;99.90;;;;;;4983502;28;20487;-73
2023/12/23 11:15:02;;;;;;;2.70;2.50;;;9.20;99.90;;;;;;4980735;28;20481;-73
2023/12/23 11:17:29;;;;;;;1.57;1.47;;;9.20;99.90;;;;;;4994259;28;20468;-76
2023/12/23 11:19:56;;;;;;;0.80;0.80;;;9.20;99.90;;;;;;4973774;28;20461;-73
2023/12/23 11:22:48;;;;;;;1.00;1.00;;;9.20;99.90;;;;;;4999369;28;20489;-73
2023/12/23 11:25:37;;;;;;;0.70;0.70;;;9.20;99.90;;;;;;4994492;28;20479;-75
2023/12/23 11:28:09;;;;;;;0.90;0.90;;;9.20;99.90;;;;;;4992412;28;20468;-73
2023/12/23 11:30:54;;;;;;;0.90;0.90;;;9.20;99.90;;;;;;5000106;28;20540;-75
2023/12/23 11:33:21;;;;;;;0.60;0.53;;;9.20;99.90;;;;;;4996112;28;20476;-75
2023/12/23 11:35:51;;;;;;;1.20;1.10;;;9.20;99.90;;;;;;4988289;28;20543;-75
2023/12/23 11:38:17;;;;;;;1.07;0.90;;;9.20;99.90;;;;;;4996153;28;20532;-75
2023/12/23 11:40:43;;;;;;;0.70;0.70;;;9.20;99.90;;;;;;4988093;28;20902;-76
2023/12/23 11:43:08;;;;;;;1.27;0.50;;;9.20;99.90;;;;;;4998596;28;20221;-75
2023/12/23 11:45:37;;;;;;;0.50;0.50;;;9.20;99.90;;;;;;5001555;28;20844;-76
2023/12/23 11:48:06;;;;;;;2.10;1.67;;;9.20;99.90;;;;;;4970766;28;20230;-75
2023/12/23 11:50:32;;;;;;;5.97;2.73;;;9.20;99.90;;;;;;4997771;28;20486;-76
2023/12/23 11:52:57;;;;;;;4.40;1.90;;;9.30;99.90;;;;;;4981694;28;20519;-75
2023/12/23 11:55:24;;;;;;;1.63;1.53;;;9.30;99.90;;;;;;4998319;28;20602;-76
2023/12/23 11:57:50;;;;;;;0.73;0.70;;;9.20;99.90;;;;;;4990735;28;20215;-76
2023/12/23 12:00:18;;;;;;;1.10;0.90;;;9.20;99.90;;;;;;4984246;28;20536;-76
2023/12/23 12:02:44;;;;;;;0.70;0.60;;;9.30;99.90;;;;;;4985734;28;20219;-76
2023/12/23 12:05:12;;;;;;;1.23;0.97;;;9.30;99.90;;;;;;4997392;28;20462;-77
2023/12/23 12:07:38;;;;;;;0.87;0.80;;;9.30;99.90;;;;;;4996770;28;20476;-76
2023/12/23 12:10:04;;;;;;;2.43;1.00;;;9.30;99.90;;;;;;4989408;28;20812;-75
2023/12/23 12:12:30;;;;;;;20.67;9.53;;;9.30;99.90;;;;;;4981930;28;20492;-75
2023/12/23 12:14:56;;;;;;;16.47;6.93;;;9.30;99.90;;;;;;4996153;28;21097;-76
2023/12/23 12:17:24;;;;;;;18.60;10.43;;;9.30;99.90;;;;;;4996308;28;20234;-76
2023/12/23 12:19:50;;;;;;;3.63;3.13;;;9.30;99.90;;;;;;4975017;28;20545;-75
2023/12/23 12:22:15;;;;;;;2.43;1.87;;;9.40;99.90;;;;;;4994399;28;21101;-76
2023/12/23 12:24:42;;;;;;;3.73;1.23;;;9.40;99.90;;;;;;5000717;28;20289;-75
2023/12/23 12:27:08;;;;;;;1.47;0.97;;;9.40;99.90;;;;;;4991132;28;20231;-76
2023/12/23 12:29:34;;;;;;;1.80;1.70;;;9.40;99.90;;;;;;4988608;28;20488;-76
2023/12/23 12:32:00;;;;;;;3.83;1.97;;;9.40;99.90;;;;;;4994550;28;20916;-75
2023/12/23 12:34:28;;;;;;;1.27;0.93;;;9.40;99.90;;;;;;4998983;28;20275;-76
2023/12/23 12:36:54;;;;;;;1.50;1.40;;;9.40;99.90;;;;;;4992630;28;20233;-75
2023/12/23 12:39:20;;;;;;;1.80;1.07;;;9.40;99.90;;;;;;4992712;28;21277;-75
2023/12/23 12:41:50;;;;;;;1.40;0.87;;;9.50;99.90;;;;;;4991941;28;20468;-75
2023/12/23 12:44:17;;;;;;;1.23;0.80;;;9.50;99.90;;;;;;4983464;28;20536;-76
2023/12/23 12:46:44;;;;;;;1.47;0.73;;;9.50;99.90;;;;;;4996945;28;20606;-75
2023/12/23 12:49:11;;;;;;;1.00;0.80;;;9.40;99.90;;;;;;5002938;28;20465;-75
2023/12/23 12:51:37;;;;;;;0.97;0.90;;;9.40;99.90;;;;;;5009269;28;20891;-75
2023/12/23 12:54:05;;;;;;;1.60;0.60;;;9.40;99.90;;;;;;5011416;28;21046;-75